sensor_id;sensor_type;location;lat;lon;timestamp;pressure;altitude;pressure_sealevel;temperature;humidity
62952;BME280;52163;52.212;-1.002;2023-04-06T00:01:51;100306.48;;;9.28;100.00
62952;BME280;52163;52.212;-1.002;2023-04-06T00:04:17;100305.78;;;9.28;100.00
62952;BME280;52163;52.212;-1.002;2023-04-06T00:06:42;100303.64;;;9.28;100.00
62952;BME280;52163;52.212;-1.002;2023-04-06T00:09:08;100298.85;;;9.32;100.00
62952;BME280;52163;52.212;-1.002;2023-04-06T00:11:33;100296.16;;;9.33;100.00
62952;BME280;52163;52.212;-1.002;2023-04-06T00:13:59;100295.62;;;9.33;100.00
62952;BME280;52163;52.212;-1.002;2023-04-06T00:16:24;100292.01;;;9.35;100.00
62952;BME280;52163;52.212;-1.002;2023-04-06T00:18:49;100292.51;;;9.35;100.00
62952;BME280;52163;52.212;-1.002;2023-04-06T00:21:15;100288.73;;;9.34;100.00
62952;BME280;52163;52.212;-1.002;2023-04-06T00:23:41;100284.66;;;9.34;100.00
62952;BME280;52163;52.212;-1.002;2023-04-06T00:26:08;100281.88;;;9.33;100.00
62952;BME280;52163;52.212;-1.002;2023-04-06T00:28:33;100277.33;;;9.33;100.00
62952;BME280;52163;52.212;-1.002;2023-04-06T00:30:59;100274.52;;;9.32;100.00
62952;BME280;52163;52.212;-1.002;2023-04-06T00:33:25;100270.29;;;9.35;100.00
62952;BME280;52163;52.212;-1.002;2023-04-06T00:35:51;100271.92;;;9.37;100.00
62952;BME280;52163;52.212;-1.002;2023-04-06T00:38:16;100267.67;;;9.38;100.00
62952;BME280;52163;52.212;-1.002;2023-04-06T00:40:45;100267.73;;;9.39;100.00
62952;BME280;52163;52.212;-1.002;2023-04-06T00:43:13;100265.88;;;9.38;100.00
62952;BME280;52163;52.212;-1.002;2023-04-06T00:45:40;100259.52;;;9.39;100.00
62952;BME280;52163;52.212;-1.002;2023-04-06T00:48:07;100257.69;;;9.40;100.00
62952;BME280;52163;52.212;-1.002;2023-04-06T00:50:33;100258.04;;;9.43;100.00
62952;BME280;52163;52.212;-1.002;2023-04-06T00:52:59;100253.31;;;9.46;100.00
62952;BME280;52163;52.212;-1.002;2023-04-06T00:55:28;100248.73;;;9.46;100.00
62952;BME280;52163;52.212;-1.002;2023-04-06T00:57:57;100246.85;;;9.44;100.00
62952;BME280;52163;52.212;-1.002;2023-04-06T01:00:22;100241.88;;;9.42;100.00
62952;BME280;52163;52.212;-1.002;2023-04-06T01:02:48;100241.15;;;9.42;100.00
62952;BME280;52163;52.212;-1.002;2023-04-06T01:05:14;100240.84;;;9.44;100.00
62952;BME280;52163;52.212;-1.002;2023-04-06T01:07:40;100235.31;;;9.49;100.00
62952;BME280;52163;52.212;-1.002;2023-04-06T01:10:06;100232.35;;;9.51;100.00
62952;BME280;52163;52.212;-1.002;2023-04-06T01:12:31;100229.23;;;9.50;100.00
62952;BME280;52163;52.212;-1.002;2023-04-06T01:14:57;100224.21;;;9.48;100.00
62952;BME280;52163;52.212;-1.002;2023-04-06T01:17:22;100218.85;;;9.47;100.00
62952;BME280;52163;52.212;-1.002;2023-04-06T01:19:48;100213.24;;;9.46;100.00
62952;BME280;52163;52.212;-1.002;2023-04-06T01:22:19;100214.97;;;9.47;100.00
62952;BME280;52163;52.212;-1.002;2023-04-06T01:24:44;100209.17;;;9.47;100.00
62952;BME280;52163;52.212;-1.002;2023-04-06T01:27:10;100201.88;;;9.48;100.00
62952;BME280;52163;52.212;-1.002;2023-04-06T01:29:36;100199.95;;;9.47;100.00
62952;BME280;52163;52.212;-1.002;2023-04-06T01:32:02;100194.05;;;9.46;100.00
62952;BME280;52163;52.212;-1.002;2023-04-06T01:34:27;100191.48;;;9.44;100.00
62952;BME280;52163;52.212;-1.002;2023-04-06T01:36:53;100190.90;;;9.45;100.00
62952;BME280;52163;52.212;-1.002;2023-04-06T01:39:19;100185.34;;;9.47;100.00
62952;BME280;52163;52.212;-1.002;2023-04-06T01:41:44;100186.35;;;9.45;100.00
62952;BME280;52163;52.212;-1.002;2023-04-06T01:44:12;100184.27;;;9.47;100.00
62952;BME280;52163;52.212;-1.002;2023-04-06T01:46:38;100180.33;;;9.48;100.00
62952;BME280;52163;52.212;-1.002;2023-04-06T01:49:03;100178.83;;;9.50;100.00
62952;BME280;52163;52.212;-1.002;2023-04-06T01:51:29;100174.79;;;9.49;100.00
62952;BME280;52163;52.212;-1.002;2023-04-06T01:53:55;100171.88;;;9.51;100.00
62952;BME280;52163;52.212;-1.002;2023-04-06T01:56:20;100168.21;;;9.50;100.00
62952;BME280;52163;52.212;-1.002;2023-04-06T01:58:46;100167.04;;;9.52;100.00
62952;BME280;52163;52.212;-1.002;2023-04-06T02:01:11;100165.55;;;9.53;100.00
62952;BME280;52163;52.212;-1.002;2023-04-06T02:03:37;100162.73;;;9.53;100.00
62952;BME280;52163;52.212;-1.002;2023-04-06T02:06:02;100160.89;;;9.54;100.00
62952;BME280;52163;52.212;-1.002;2023-04-06T02:08:28;100158.46;;;9.54;100.00
62952;BME280;52163;52.212;-1.002;2023-04-06T02:10:54;100155.11;;;9.54;100.00
62952;BME280;52163;52.212;-1.002;2023-04-06T02:13:19;100149.10;;;9.54;100.00
62952;BME280;52163;52.212;-1.002;2023-04-06T02:15:45;100150.87;;;9.54;100.00
62952;BME280;52163;52.212;-1.002;2023-04-06T02:18:10;100148.20;;;9.54;100.00
62952;BME280;52163;52.212;-1.002;2023-04-06T02:20:36;100146.75;;;9.55;100.00
62952;BME280;52163;52.212;-1.002;2023-04-06T02:23:01;100144.43;;;9.58;100.00
62952;BME280;52163;52.212;-1.002;2023-04-06T02:25:26;100140.00;;;9.59;100.00
62952;BME280;52163;52.212;-1.002;2023-04-06T02:27:53;100136.98;;;9.62;100.00
62952;BME280;52163;52.212;-1.002;2023-04-06T02:30:19;100133.87;;;9.61;100.00
62952;BME280;52163;52.212;-1.002;2023-04-06T02:32:44;100131.14;;;9.56;100.00
62952;BME280;52163;52.212;-1.002;2023-04-06T02:35:09;100129.73;;;9.56;100.00
62952;BME280;52163;52.212;-1.002;2023-04-06T02:37:35;100127.17;;;9.58;100.00
62952;BME280;52163;52.212;-1.002;2023-04-06T02:40:00;100122.46;;;9.60;100.00
62952;BME280;52163;52.212;-1.002;2023-04-06T02:42:25;100123.16;;;9.63;100.00
62952;BME280;52163;52.212;-1.002;2023-04-06T02:44:51;100123.58;;;9.65;100.00
62952;BME280;52163;52.212;-1.002;2023-04-06T02:47:16;100123.09;;;9.67;100.00
62952;BME280;52163;52.212;-1.002;2023-04-06T02:49:41;100123.02;;;9.68;100.00
62952;BME280;52163;52.212;-1.002;2023-04-06T02:52:07;100120.98;;;9.70;100.00
62952;BME280;52163;52.212;-1.002;2023-04-06T02:54:32;100120.30;;;9.70;100.00
62952;BME280;52163;52.212;-1.002;2023-04-06T02:56:58;100118.17;;;9.70;100.00
62952;BME280;52163;52.212;-1.002;2023-04-06T02:59:23;100116.90;;;9.67;100.00
62952;BME280;52163;52.212;-1.002;2023-04-06T03:01:48;100109.86;;;9.67;100.00
62952;BME280;52163;52.212;-1.002;2023-04-06T03:04:14;100112.73;;;9.69;100.00
62952;BME280;52163;52.212;-1.002;2023-04-06T03:06:39;100111.70;;;9.69;100.00
62952;BME280;52163;52.212;-1.002;2023-04-06T03:09:06;100105.53;;;9.69;100.00
62952;BME280;52163;52.212;-1.002;2023-04-06T03:11:32;100104.33;;;9.68;100.00
62952;BME280;52163;52.212;-1.002;2023-04-06T03:13:57;100104.20;;;9.67;100.00
62952;BME280;52163;52.212;-1.002;2023-04-06T03:16:24;100097.55;;;9.67;100.00
62952;BME280;52163;52.212;-1.002;2023-04-06T03:18:49;100097.34;;;9.67;100.00
62952;BME280;52163;52.212;-1.002;2023-04-06T03:21:15;100092.64;;;9.69;100.00
62952;BME280;52163;52.212;-1.002;2023-04-06T03:23:41;100093.19;;;9.69;100.00
62952;BME280;52163;52.212;-1.002;2023-04-06T03:26:06;100097.34;;;9.70;100.00
62952;BME280;52163;52.212;-1.002;2023-04-06T03:28:32;100091.37;;;9.69;100.00
62952;BME280;52163;52.212;-1.002;2023-04-06T03:30:57;100085.77;;;9.66;100.00
62952;BME280;52163;52.212;-1.002;2023-04-06T03:33:22;100079.75;;;9.64;100.00
62952;BME280;52163;52.212;-1.002;2023-04-06T03:35:48;100077.02;;;9.65;100.00
62952;BME280;52163;52.212;-1.002;2023-04-06T03:38:13;100075.69;;;9.67;100.00
62952;BME280;52163;52.212;-1.002;2023-04-06T03:40:38;100078.34;;;9.69;100.00
62952;BME280;52163;52.212;-1.002;2023-04-06T03:43:04;100076.34;;;9.70;100.00
62952;BME280;52163;52.212;-1.002;2023-04-06T03:45:29;100075.54;;;9.69;100.00
62952;BME280;52163;52.212;-1.002;2023-04-06T03:47:55;100072.98;;;9.67;100.00
62952;BME280;52163;52.212;-1.002;2023-04-06T03:50:20;100070.80;;;9.68;100.00
62952;BME280;52163;52.212;-1.002;2023-04-06T03:52:46;100068.23;;;9.70;100.00
62952;BME280;52163;52.212;-1.002;2023-04-06T03:55:11;100063.08;;;9.73;100.00
62952;BME280;52163;52.212;-1.002;2023-04-06T03:57:37;100061.55;;;9.78;100.00
62952;BME280;52163;52.212;-1.002;2023-04-06T04:00:03;100065.16;;;9.80;100.00
62952;BME280;52163;52.212;-1.002;2023-04-06T04:02:29;100061.92;;;9.83;100.00
62952;BME280;52163;52.212;-1.002;2023-04-06T04:04:55;100056.58;;;9.87;100.00
62952;BME280;52163;52.212;-1.002;2023-04-06T04:07:20;100056.64;;;9.89;100.00
62952;BME280;52163;52.212;-1.002;2023-04-06T04:09:46;100054.48;;;9.90;100.00
62952;BME280;52163;52.212;-1.002;2023-04-06T04:12:11;100045.04;;;9.88;100.00
62952;BME280;52163;52.212;-1.002;2023-04-06T04:14:37;100040.39;;;9.89;100.00
62952;BME280;52163;52.212;-1.002;2023-04-06T04:17:02;100033.35;;;9.95;100.00
62952;BME280;52163;52.212;-1.002;2023-04-06T04:19:27;100035.33;;;9.99;100.00
62952;BME280;52163;52.212;-1.002;2023-04-06T04:21:53;100038.11;;;10.02;100.00
62952;BME280;52163;52.212;-1.002;2023-04-06T04:24:18;100040.83;;;10.07;100.00
62952;BME280;52163;52.212;-1.002;2023-04-06T04:26:43;100042.13;;;10.08;100.00
62952;BME280;52163;52.212;-1.002;2023-04-06T04:29:09;100042.59;;;10.09;100.00
62952;BME280;52163;52.212;-1.002;2023-04-06T04:31:35;100045.42;;;10.09;100.00
62952;BME280;52163;52.212;-1.002;2023-04-06T04:34:00;100042.08;;;10.09;100.00
62952;BME280;52163;52.212;-1.002;2023-04-06T04:36:26;100039.95;;;10.09;100.00
62952;BME280;52163;52.212;-1.002;2023-04-06T04:38:52;100039.45;;;10.12;100.00
62952;BME280;52163;52.212;-1.002;2023-04-06T04:41:17;100039.31;;;10.14;100.00
62952;BME280;52163;52.212;-1.002;2023-04-06T04:43:43;100040.19;;;10.16;100.00
62952;BME280;52163;52.212;-1.002;2023-04-06T04:46:10;100032.05;;;10.20;100.00
62952;BME280;52163;52.212;-1.002;2023-04-06T04:48:35;100025.68;;;10.20;100.00
62952;BME280;52163;52.212;-1.002;2023-04-06T04:51:01;100025.62;;;10.18;100.00
62952;BME280;52163;52.212;-1.002;2023-04-06T04:53:27;100024.66;;;10.16;100.00
62952;BME280;52163;52.212;-1.002;2023-04-06T04:55:52;100018.41;;;10.15;100.00
62952;BME280;52163;52.212;-1.002;2023-04-06T04:58:18;100016.13;;;10.15;100.00
62952;BME280;52163;52.212;-1.002;2023-04-06T05:00:46;100011.64;;;10.16;100.00
62952;BME280;52163;52.212;-1.002;2023-04-06T05:03:25;100001.48;;;10.17;100.00
62952;BME280;52163;52.212;-1.002;2023-04-06T05:05:52;100003.81;;;10.16;100.00
62952;BME280;52163;52.212;-1.002;2023-04-06T05:08:17;100001.48;;;10.14;100.00
62952;BME280;52163;52.212;-1.002;2023-04-06T05:10:43;100006.27;;;10.12;100.00
62952;BME280;52163;52.212;-1.002;2023-04-06T05:13:10;100010.45;;;10.10;100.00
62952;BME280;52163;52.212;-1.002;2023-04-06T05:15:36;100012.39;;;10.07;100.00
62952;BME280;52163;52.212;-1.002;2023-04-06T05:18:06;100016.86;;;10.06;100.00
62952;BME280;52163;52.212;-1.002;2023-04-06T05:20:31;100014.13;;;10.08;100.00
62952;BME280;52163;52.212;-1.002;2023-04-06T05:22:57;100011.02;;;10.07;100.00
62952;BME280;52163;52.212;-1.002;2023-04-06T05:25:22;100013.98;;;10.04;100.00
62952;BME280;52163;52.212;-1.002;2023-04-06T05:27:48;100011.03;;;10.01;100.00
62952;BME280;52163;52.212;-1.002;2023-04-06T05:30:14;100023.45;;;10.00;100.00
62952;BME280;52163;52.212;-1.002;2023-04-06T05:32:40;100026.99;;;9.97;100.00
62952;BME280;52163;52.212;-1.002;2023-04-06T05:35:05;100029.97;;;9.92;100.00
62952;BME280;52163;52.212;-1.002;2023-04-06T05:37:31;100036.44;;;9.90;100.00
62952;BME280;52163;52.212;-1.002;2023-04-06T05:39:56;100037.16;;;9.93;100.00
62952;BME280;52163;52.212;-1.002;2023-04-06T05:42:22;100041.30;;;9.97;100.00
62952;BME280;52163;52.212;-1.002;2023-04-06T05:44:48;100037.34;;;10.01;100.00
62952;BME280;52163;52.212;-1.002;2023-04-06T05:47:14;100032.86;;;10.02;100.00
62952;BME280;52163;52.212;-1.002;2023-04-06T05:49:41;100036.10;;;10.03;100.00
62952;BME280;52163;52.212;-1.002;2023-04-06T05:52:08;100035.47;;;10.05;100.00
62952;BME280;52163;52.212;-1.002;2023-04-06T05:54:33;100034.07;;;10.08;100.00
62952;BME280;52163;52.212;-1.002;2023-04-06T05:56:59;100031.40;;;10.11;100.00
62952;BME280;52163;52.212;-1.002;2023-04-06T05:59:24;100029.58;;;10.17;100.00
62952;BME280;52163;52.212;-1.002;2023-04-06T06:01:50;100028.34;;;10.25;100.00
62952;BME280;52163;52.212;-1.002;2023-04-06T06:04:15;100023.96;;;10.32;100.00
62952;BME280;52163;52.212;-1.002;2023-04-06T06:06:40;100022.14;;;10.39;100.00
62952;BME280;52163;52.212;-1.002;2023-04-06T06:09:06;100021.94;;;10.42;100.00
62952;BME280;52163;52.212;-1.002;2023-04-06T06:11:31;100018.38;;;10.45;100.00
62952;BME280;52163;52.212;-1.002;2023-04-06T06:13:58;100019.71;;;10.49;100.00
62952;BME280;52163;52.212;-1.002;2023-04-06T06:16:23;100021.13;;;10.52;100.00
62952;BME280;52163;52.212;-1.002;2023-04-06T06:18:49;100018.95;;;10.55;100.00
62952;BME280;52163;52.212;-1.002;2023-04-06T06:21:15;100021.76;;;10.61;100.00
62952;BME280;52163;52.212;-1.002;2023-04-06T06:23:42;100019.65;;;10.65;100.00
62952;BME280;52163;52.212;-1.002;2023-04-06T06:26:08;100017.36;;;10.73;100.00
62952;BME280;52163;52.212;-1.002;2023-04-06T06:28:33;100018.25;;;10.81;100.00
62952;BME280;52163;52.212;-1.002;2023-04-06T06:30:59;100016.25;;;10.92;100.00
62952;BME280;52163;52.212;-1.002;2023-04-06T06:33:24;100013.09;;;11.07;100.00
62952;BME280;52163;52.212;-1.002;2023-04-06T06:35:51;100017.57;;;11.24;100.00
62952;BME280;52163;52.212;-1.002;2023-04-06T06:38:17;100018.70;;;11.36;100.00
62952;BME280;52163;52.212;-1.002;2023-04-06T06:40:43;100016.73;;;11.43;100.00
62952;BME280;52163;52.212;-1.002;2023-04-06T06:43:10;100014.53;;;11.47;100.00
62952;BME280;52163;52.212;-1.002;2023-04-06T06:45:35;100018.61;;;11.47;100.00
62952;BME280;52163;52.212;-1.002;2023-04-06T06:48:00;100022.71;;;11.44;100.00
62952;BME280;52163;52.212;-1.002;2023-04-06T06:50:26;100027.03;;;11.36;100.00
62952;BME280;52163;52.212;-1.002;2023-04-06T06:52:51;100023.80;;;11.28;100.00
62952;BME280;52163;52.212;-1.002;2023-04-06T06:55:17;100022.31;;;11.22;100.00
62952;BME280;52163;52.212;-1.002;2023-04-06T06:57:44;100023.29;;;11.16;100.00
62952;BME280;52163;52.212;-1.002;2023-04-06T07:00:12;100025.46;;;11.12;100.00
62952;BME280;52163;52.212;-1.002;2023-04-06T07:02:40;100023.52;;;11.12;100.00
62952;BME280;52163;52.212;-1.002;2023-04-06T07:05:06;100023.09;;;11.08;100.00
62952;BME280;52163;52.212;-1.002;2023-04-06T07:07:32;100027.13;;;11.03;100.00
62952;BME280;52163;52.212;-1.002;2023-04-06T07:09:59;100026.63;;;10.98;100.00
62952;BME280;52163;52.212;-1.002;2023-04-06T07:12:25;100026.09;;;10.91;100.00
62952;BME280;52163;52.212;-1.002;2023-04-06T07:14:50;100025.89;;;10.83;100.00
62952;BME280;52163;52.212;-1.002;2023-04-06T07:17:16;100029.36;;;10.79;100.00
62952;BME280;52163;52.212;-1.002;2023-04-06T07:19:41;100030.90;;;10.77;100.00
62952;BME280;52163;52.212;-1.002;2023-04-06T07:22:07;100034.61;;;10.74;100.00
62952;BME280;52163;52.212;-1.002;2023-04-06T07:24:32;100036.02;;;10.72;100.00
62952;BME280;52163;52.212;-1.002;2023-04-06T07:26:59;100035.96;;;10.72;100.00
62952;BME280;52163;52.212;-1.002;2023-04-06T07:29:26;100040.35;;;10.73;100.00
62952;BME280;52163;52.212;-1.002;2023-04-06T07:31:51;100037.67;;;10.73;100.00
62952;BME280;52163;52.212;-1.002;2023-04-06T07:34:17;100039.67;;;10.75;100.00
62952;BME280;52163;52.212;-1.002;2023-04-06T07:36:42;100040.93;;;10.78;100.00
62952;BME280;52163;52.212;-1.002;2023-04-06T07:39:08;100048.49;;;10.81;100.00
62952;BME280;52163;52.212;-1.002;2023-04-06T07:41:33;100043.23;;;10.77;100.00
62952;BME280;52163;52.212;-1.002;2023-04-06T07:43:58;100047.78;;;10.72;100.00
62952;BME280;52163;52.212;-1.002;2023-04-06T07:46:24;100045.77;;;10.66;100.00
62952;BME280;52163;52.212;-1.002;2023-04-06T07:48:52;100051.06;;;10.63;100.00
62952;BME280;52163;52.212;-1.002;2023-04-06T07:51:17;100052.97;;;10.64;100.00
62952;BME280;52163;52.212;-1.002;2023-04-06T07:53:46;100055.76;;;10.65;100.00
62952;BME280;52163;52.212;-1.002;2023-04-06T07:56:11;100053.83;;;10.65;100.00
62952;BME280;52163;52.212;-1.002;2023-04-06T07:58:40;100055.54;;;10.63;100.00
62952;BME280;52163;52.212;-1.002;2023-04-06T08:01:06;100056.33;;;10.61;100.00
62952;BME280;52163;52.212;-1.002;2023-04-06T08:03:33;100054.93;;;10.61;100.00
62952;BME280;52163;52.212;-1.002;2023-04-06T08:05:59;100057.91;;;10.62;100.00
62952;BME280;52163;52.212;-1.002;2023-04-06T08:08:24;100057.52;;;10.62;100.00
62952;BME280;52163;52.212;-1.002;2023-04-06T08:10:49;100059.80;;;10.70;100.00
62952;BME280;52163;52.212;-1.002;2023-04-06T08:13:15;100060.69;;;10.88;100.00
62952;BME280;52163;52.212;-1.002;2023-04-06T08:15:41;100064.67;;;11.13;100.00
62952;BME280;52163;52.212;-1.002;2023-04-06T08:18:08;100066.07;;;11.26;100.00
62952;BME280;52163;52.212;-1.002;2023-04-06T08:20:34;100068.02;;;11.28;100.00
62952;BME280;52163;52.212;-1.002;2023-04-06T08:23:00;100065.38;;;11.26;100.00
62952;BME280;52163;52.212;-1.002;2023-04-06T08:25:25;100071.36;;;11.21;100.00
62952;BME280;52163;52.212;-1.002;2023-04-06T08:27:51;100070.21;;;11.19;100.00
62952;BME280;52163;52.212;-1.002;2023-04-06T08:30:16;100075.42;;;11.23;100.00
62952;BME280;52163;52.212;-1.002;2023-04-06T08:32:44;100075.38;;;11.32;100.00
62952;BME280;52163;52.212;-1.002;2023-04-06T08:35:10;100076.20;;;11.40;100.00
62952;BME280;52163;52.212;-1.002;2023-04-06T08:37:35;100078.59;;;11.51;100.00
62952;BME280;52163;52.212;-1.002;2023-04-06T08:40:00;100084.73;;;11.57;100.00
62952;BME280;52163;52.212;-1.002;2023-04-06T08:42:28;100086.98;;;11.53;100.00
62952;BME280;52163;52.212;-1.002;2023-04-06T08:44:56;100089.36;;;11.44;100.00
62952;BME280;52163;52.212;-1.002;2023-04-06T08:47:22;100093.28;;;11.39;100.00
62952;BME280;52163;52.212;-1.002;2023-04-06T08:49:48;100097.25;;;11.35;100.00
62952;BME280;52163;52.212;-1.002;2023-04-06T08:52:17;100101.36;;;11.34;100.00
62952;BME280;52163;52.212;-1.002;2023-04-06T08:54:43;100097.73;;;11.41;100.00
62952;BME280;52163;52.212;-1.002;2023-04-06T08:57:08;100097.05;;;11.48;100.00
62952;BME280;52163;52.212;-1.002;2023-04-06T08:59:35;100095.68;;;11.63;100.00
62952;BME280;52163;52.212;-1.002;2023-04-06T09:02:04;100090.64;;;11.71;100.00
62952;BME280;52163;52.212;-1.002;2023-04-06T09:04:33;100089.05;;;11.79;100.00
62952;BME280;52163;52.212;-1.002;2023-04-06T09:07:00;100088.81;;;11.92;100.00
62952;BME280;52163;52.212;-1.002;2023-04-06T09:09:26;100092.16;;;12.07;100.00
62952;BME280;52163;52.212;-1.002;2023-04-06T09:11:51;100088.77;;;12.15;99.46
62952;BME280;52163;52.212;-1.002;2023-04-06T09:14:29;100085.80;;;12.19;98.86
62952;BME280;52163;52.212;-1.002;2023-04-06T09:16:57;100084.73;;;12.26;98.61
62952;BME280;52163;52.212;-1.002;2023-04-06T09:19:23;100090.31;;;12.32;97.90
62952;BME280;52163;52.212;-1.002;2023-04-06T09:21:48;100089.11;;;12.41;97.33
62952;BME280;52163;52.212;-1.002;2023-04-06T09:24:13;100096.88;;;12.51;96.74
62952;BME280;52163;52.212;-1.002;2023-04-06T09:26:46;100100.02;;;12.57;95.34
62952;BME280;52163;52.212;-1.002;2023-04-06T09:29:22;100104.70;;;12.58;94.21
62952;BME280;52163;52.212;-1.002;2023-04-06T09:31:49;100102.62;;;12.65;93.87
62952;BME280;52163;52.212;-1.002;2023-04-06T09:34:22;100107.00;;;12.68;92.76
62952;BME280;52163;52.212;-1.002;2023-04-06T09:36:50;100108.05;;;12.70;92.25
62952;BME280;52163;52.212;-1.002;2023-04-06T09:39:20;100108.96;;;12.72;92.05
62952;BME280;52163;52.212;-1.002;2023-04-06T09:41:53;100111.67;;;12.76;90.85
62952;BME280;52163;52.212;-1.002;2023-04-06T09:44:19;100110.79;;;12.76;89.82
62952;BME280;52163;52.212;-1.002;2023-04-06T09:46:46;100114.48;;;12.79;90.11
62952;BME280;52163;52.212;-1.002;2023-04-06T09:49:13;100120.19;;;12.88;89.72
62952;BME280;52163;52.212;-1.002;2023-04-06T09:51:40;100121.96;;;13.00;89.39
62952;BME280;52163;52.212;-1.002;2023-04-06T09:54:07;100124.81;;;13.13;88.75
62952;BME280;52163;52.212;-1.002;2023-04-06T09:56:47;100127.78;;;13.26;88.36
62952;BME280;52163;52.212;-1.002;2023-04-06T10:01:58;100128.58;;;13.36;86.33
62952;BME280;52163;52.212;-1.002;2023-04-06T10:04:43;100134.40;;;13.39;85.06
62952;BME280;52163;52.212;-1.002;2023-04-06T10:07:12;100136.89;;;13.34;83.67
62952;BME280;52163;52.212;-1.002;2023-04-06T10:09:38;100140.98;;;13.41;83.69
62952;BME280;52163;52.212;-1.002;2023-04-06T10:12:06;100143.34;;;13.48;82.47
62952;BME280;52163;52.212;-1.002;2023-04-06T10:14:35;100148.93;;;13.48;81.45
62952;BME280;52163;52.212;-1.002;2023-04-06T10:17:03;100148.02;;;13.48;80.71
62952;BME280;52163;52.212;-1.002;2023-04-06T10:22:01;100149.60;;;13.47;79.81
62952;BME280;52163;52.212;-1.002;2023-04-06T10:24:28;100148.96;;;13.44;78.91
62952;BME280;52163;52.212;-1.002;2023-04-06T10:27:11;100155.67;;;13.41;78.66
62952;BME280;52163;52.212;-1.002;2023-04-06T10:29:47;100155.08;;;13.35;78.01
62952;BME280;52163;52.212;-1.002;2023-04-06T10:32:16;100157.98;;;13.34;77.94
62952;BME280;52163;52.212;-1.002;2023-04-06T10:34:41;100160.52;;;13.41;77.73
62952;BME280;52163;52.212;-1.002;2023-04-06T10:37:14;100158.19;;;13.44;77.39
62952;BME280;52163;52.212;-1.002;2023-04-06T10:39:52;100159.06;;;13.44;76.62
62952;BME280;52163;52.212;-1.002;2023-04-06T10:42:24;100161.15;;;13.37;76.30
62952;BME280;52163;52.212;-1.002;2023-04-06T10:44:50;100155.94;;;13.31;76.63
62952;BME280;52163;52.212;-1.002;2023-04-06T10:47:19;100157.46;;;13.32;76.65
62952;BME280;52163;52.212;-1.002;2023-04-06T10:49:44;100157.76;;;13.42;76.90
62952;BME280;52163;52.212;-1.002;2023-04-06T10:52:10;100163.01;;;13.50;75.89
62952;BME280;52163;52.212;-1.002;2023-04-06T10:54:41;100161.84;;;13.49;75.14
62952;BME280;52163;52.212;-1.002;2023-04-06T10:57:08;100164.05;;;13.41;74.75
62952;BME280;52163;52.212;-1.002;2023-04-06T10:59:33;100163.86;;;13.39;74.62
62952;BME280;52163;52.212;-1.002;2023-04-06T11:01:59;100164.56;;;13.39;74.74
62952;BME280;52163;52.212;-1.002;2023-04-06T11:04:24;100167.06;;;13.46;74.71
62952;BME280;52163;52.212;-1.002;2023-04-06T11:06:50;100168.57;;;13.49;74.32
62952;BME280;52163;52.212;-1.002;2023-04-06T11:09:29;100169.75;;;13.52;74.05
62952;BME280;52163;52.212;-1.002;2023-04-06T11:11:57;100169.98;;;13.37;72.49
62952;BME280;52163;52.212;-1.002;2023-04-06T11:14:23;100177.77;;;13.14;71.39
62952;BME280;52163;52.212;-1.002;2023-04-06T11:16:49;100178.13;;;12.91;71.12
62952;BME280;52163;52.212;-1.002;2023-04-06T11:19:15;100175.42;;;12.65;71.20
62952;BME280;52163;52.212;-1.002;2023-04-06T11:21:46;100173.15;;;12.50;71.80
62952;BME280;52163;52.212;-1.002;2023-04-06T11:26:57;100173.70;;;12.40;72.17
62952;BME280;52163;52.212;-1.002;2023-04-06T11:29:24;100169.37;;;12.41;71.92
62952;BME280;52163;52.212;-1.002;2023-04-06T11:31:53;100163.98;;;12.47;71.76
62952;BME280;52163;52.212;-1.002;2023-04-06T11:34:21;100165.30;;;12.56;71.87
62952;BME280;52163;52.212;-1.002;2023-04-06T11:36:57;100167.14;;;12.62;69.76
62952;BME280;52163;52.212;-1.002;2023-04-06T11:39:25;100173.31;;;12.67;69.36
62952;BME280;52163;52.212;-1.002;2023-04-06T11:41:59;100171.84;;;12.72;68.68
62952;BME280;52163;52.212;-1.002;2023-04-06T11:44:40;100177.39;;;12.86;68.39
62952;BME280;52163;52.212;-1.002;2023-04-06T11:47:09;100172.64;;;13.07;67.80
62952;BME280;52163;52.212;-1.002;2023-04-06T11:49:40;100172.36;;;13.34;66.86
62952;BME280;52163;52.212;-1.002;2023-04-06T11:52:19;100170.26;;;13.71;66.55
62952;BME280;52163;52.212;-1.002;2023-04-06T11:54:47;100177.75;;;13.98;65.17
62952;BME280;52163;52.212;-1.002;2023-04-06T11:57:12;100180.95;;;13.93;64.67
62952;BME280;52163;52.212;-1.002;2023-04-06T11:59:38;100187.33;;;13.73;65.20
62952;BME280;52163;52.212;-1.002;2023-04-06T12:02:05;100187.68;;;13.43;65.61
62952;BME280;52163;52.212;-1.002;2023-04-06T12:04:31;100197.16;;;13.16;65.12
62952;BME280;52163;52.212;-1.002;2023-04-06T12:06:57;100187.36;;;13.00;64.23
62952;BME280;52163;52.212;-1.002;2023-04-06T12:09:23;100192.41;;;12.87;64.26
62952;BME280;52163;52.212;-1.002;2023-04-06T12:11:48;100188.59;;;12.81;63.95
62952;BME280;52163;52.212;-1.002;2023-04-06T12:14:16;100188.20;;;12.82;63.80
62952;BME280;52163;52.212;-1.002;2023-04-06T12:16:42;100190.89;;;12.86;63.76
62952;BME280;52163;52.212;-1.002;2023-04-06T12:19:07;100191.71;;;12.91;63.65
62952;BME280;52163;52.212;-1.002;2023-04-06T12:21:34;100195.01;;;12.97;63.58
62952;BME280;52163;52.212;-1.002;2023-04-06T12:24:01;100191.33;;;13.06;64.28
62952;BME280;52163;52.212;-1.002;2023-04-06T12:26:27;100192.09;;;13.19;64.91
62952;BME280;52163;52.212;-1.002;2023-04-06T12:28:52;100194.40;;;13.31;64.24
62952;BME280;52163;52.212;-1.002;2023-04-06T12:31:19;100191.64;;;13.49;63.79
62952;BME280;52163;52.212;-1.002;2023-04-06T12:33:51;100192.19;;;13.74;63.56
62952;BME280;52163;52.212;-1.002;2023-04-06T12:36:18;100194.30;;;13.93;62.77
62952;BME280;52163;52.212;-1.002;2023-04-06T12:38:48;100190.95;;;14.15;61.60
62952;BME280;52163;52.212;-1.002;2023-04-06T12:41:14;100194.24;;;14.38;60.92